Time;durP1;ratioP1;P1;durP2;ratioP2;P2;SDS_P1;SDS_P2;PMS_P1;PMS_P2;Temp;Humidity;BMP_temperature;BMP_pressure;BME280_temperature;BME280_humidity;BME280_pressure;Samples;Min_cycle;Max_cycle;Signal;HPM_P1;HPM_P2
2022/05/05 04:04:50;;;;;;;5.60;4.33;;;9.70;99.90;;;;;;5566946;24;20341;-80
2022/05/05 04:07:20;;;;;;;5.20;4.70;;;9.70;99.90;;;;;;4868425;29;20298;-80
2022/05/05 04:09:48;;;;;;;5.07;4.57;;;9.70;99.90;;;;;;4878332;29;20289;-79
2022/05/05 04:12:16;;;;;;;5.20;4.70;;;9.80;99.90;;;;;;4880016;29;20200;-79
2022/05/05 04:14:44;;;;;;;5.40;4.73;;;9.80;99.90;;;;;;4879525;29;20269;-79
2022/05/05 04:17:12;;;;;;;5.87;4.63;;;9.80;99.90;;;;;;4874784;29;20242;-79
2022/05/05 04:19:41;;;;;;;5.37;4.80;;;9.80;99.90;;;;;;4878987;29;20209;-78
2022/05/05 04:22:11;;;;;;;6.57;5.20;;;9.90;99.90;;;;;;4879225;29;20317;-80
2022/05/05 04:24:39;;;;;;;5.50;4.90;;;9.90;99.90;;;;;;4857077;29;20254;-81
2022/05/05 04:27:07;;;;;;;5.67;5.00;;;9.90;99.90;;;;;;4861041;29;20257;-76
2022/05/05 04:29:35;;;;;;;5.97;5.17;;;9.90;99.90;;;;;;4860846;29;20642;-81
2022/05/05 04:32:09;;;;;;;6.40;4.77;;;9.90;99.90;;;;;;4861489;29;20619;-80
2022/05/05 04:34:37;;;;;;;6.53;5.30;;;9.90;99.90;;;;;;4861294;29;20246;-79
2022/05/05 04:37:06;;;;;;;6.43;4.90;;;9.90;99.90;;;;;;4860868;29;20310;-79
2022/05/05 04:39:35;;;;;;;7.73;5.20;;;9.90;99.90;;;;;;4860835;29;20748;-81
2022/05/05 04:42:04;;;;;;;8.73;5.23;;;10.00;99.90;;;;;;4861408;29;20238;-80
2022/05/05 04:44:32;;;;;;;5.83;5.03;;;10.00;99.90;;;;;;4861217;29;20219;-78
2022/05/05 04:47:01;;;;;;;6.03;5.43;;;10.00;99.90;;;;;;4860197;29;20242;-77
2022/05/05 04:49:31;;;;;;;5.50;4.93;;;10.10;99.90;;;;;;4860177;29;20222;-77
2022/05/05 04:51:58;;;;;;;5.50;4.40;;;10.20;99.90;;;;;;4860097;29;20761;-79
2022/05/05 04:54:27;;;;;;;5.80;4.63;;;10.30;99.90;;;;;;4859855;29;20250;-80
2022/05/05 04:56:57;;;;;;;5.10;4.47;;;10.40;99.90;;;;;;4860121;29;20305;-79
2022/05/05 04:59:25;;;;;;;4.67;4.00;;;10.50;99.90;;;;;;4863140;29;20302;-78
2022/05/05 05:01:53;;;;;;;6.40;4.17;;;10.60;99.90;;;;;;4879105;29;20784;-78
2022/05/05 05:04:21;;;;;;;5.77;4.10;;;10.70;99.90;;;;;;4865735;29;20455;-79
2022/05/05 05:06:49;;;;;;;6.17;4.67;;;10.70;99.90;;;;;;4860692;29;20611;-79
2022/05/05 05:09:17;;;;;;;5.07;4.57;;;10.80;99.90;;;;;;4859426;29;20649;-79
2022/05/05 05:11:45;;;;;;;5.67;4.40;;;10.90;99.90;;;;;;4857922;29;20769;-77
2022/05/05 05:14:15;;;;;;;4.50;4.10;;;11.00;99.90;;;;;;4853857;29;20254;-76
2022/05/05 05:16:43;;;;;;;7.33;4.20;;;11.00;99.90;;;;;;4863096;29;20215;-78
2022/05/05 05:19:11;;;;;;;6.23;4.03;;;11.10;99.90;;;;;;4852565;29;20219;-79
2022/05/05 05:21:45;;;;;;;5.50;4.20;;;11.20;99.90;;;;;;4860775;29;20219;-77
2022/05/05 05:24:13;;;;;;;6.30;4.17;;;11.20;99.90;;;;;;4844856;29;20298;-79
2022/05/05 05:26:41;;;;;;;4.67;3.80;;;11.30;99.90;;;;;;4852035;29;20280;-77
2022/05/05 05:29:09;;;;;;;7.20;4.13;;;11.40;99.90;;;;;;4857902;29;20275;-76
2022/05/05 05:31:39;;;;;;;4.00;3.57;;;11.40;99.90;;;;;;4880347;29;20625;-79
2022/05/05 05:34:15;;;;;;;6.47;4.10;;;11.50;99.90;;;;;;4878883;29;20341;-78
2022/05/05 05:36:43;;;;;;;5.77;3.67;;;11.70;99.90;;;;;;4849906;29;20208;-79
2022/05/05 05:39:11;;;;;;;4.53;4.00;;;11.80;99.90;;;;;;4846276;29;20227;-79
2022/05/05 05:41:39;;;;;;;4.60;4.10;;;11.80;99.90;;;;;;4878091;29;20210;-76
2022/05/05 05:44:07;;;;;;;4.87;3.93;;;11.90;99.90;;;;;;4879813;29;20257;-80
2022/05/05 05:46:36;;;;;;;6.73;4.30;;;12.00;99.90;;;;;;4873269;24;20295;-77
2022/05/05 05:49:06;;;;;;;5.87;4.47;;;12.10;99.90;;;;;;4841632;29;20283;-80
2022/05/05 05:51:34;;;;;;;4.83;4.37;;;12.10;99.90;;;;;;4872037;29;20207;-74
2022/05/05 05:54:02;;;;;;;5.07;4.33;;;12.20;99.90;;;;;;4878202;29;20211;-79
2022/05/05 05:56:30;;;;;;;5.30;4.50;;;12.30;99.90;;;;;;4877597;29;20215;-77
2022/05/05 05:59:01;;;;;;;5.23;4.23;;;12.40;99.90;;;;;;4901111;23;20263;-79
2022/05/05 06:04:16;;;;;;;5.10;4.40;;;12.60;99.90;;;;;;4868950;29;20256;-77
2022/05/05 06:06:44;;;;;;;6.33;4.47;;;12.60;99.90;;;;;;4875248;29;20234;-77
2022/05/05 06:09:13;;;;;;;6.10;4.20;;;12.70;99.90;;;;;;4874011;29;20271;-77
2022/05/05 06:11:41;;;;;;;4.73;4.23;;;12.70;99.90;;;;;;4882212;29;20250;-76
2022/05/05 06:14:09;;;;;;;5.60;4.40;;;12.70;99.90;;;;;;4881832;29;20223;-76
2022/05/05 06:16:37;;;;;;;5.63;4.63;;;12.70;99.90;;;;;;4867980;29;20207;-77
2022/05/05 06:19:05;;;;;;;5.10;4.30;;;12.80;99.90;;;;;;4864232;29;20215;-77
2022/05/05 06:21:35;;;;;;;5.43;4.27;;;12.80;99.90;;;;;;4868498;29;20250;-77
2022/05/05 06:24:04;;;;;;;4.63;4.23;;;12.90;99.90;;;;;;4876254;29;20298;-74
2022/05/05 06:26:32;;;;;;;5.73;4.47;;;13.00;99.90;;;;;;4874232;29;20258;-77
2022/05/05 06:29:00;;;;;;;7.37;4.53;;;13.10;99.90;;;;;;4866564;29;20211;-76
2022/05/05 06:31:28;;;;;;;5.73;4.17;;;13.20;99.90;;;;;;4866630;29;20218;-77
2022/05/05 06:33:57;;;;;;;7.27;4.07;;;13.40;99.90;;;;;;4864462;29;20231;-77
2022/05/05 06:36:25;;;;;;;5.53;3.97;;;13.50;99.90;;;;;;4863141;29;20284;-77
2022/05/05 06:38:54;;;;;;;4.67;3.90;;;13.60;99.90;;;;;;4863043;29;20272;-79
2022/05/05 06:41:23;;;;;;;6.97;4.20;;;13.70;99.90;;;;;;4858614;29;20257;-77
2022/05/05 06:43:51;;;;;;;6.10;4.47;;;13.70;99.90;;;;;;4845506;29;20322;-76
2022/05/05 06:46:20;;;;;;;6.27;4.10;;;13.70;99.90;;;;;;4846716;29;20243;-77
2022/05/05 06:48:57;;;;;;;7.10;4.47;;;13.90;99.90;;;;;;4847728;29;20246;-79
2022/05/05 06:51:25;;;;;;;5.60;4.50;;;14.00;99.90;;;;;;4851653;29;20247;-77
2022/05/05 06:53:55;;;;;;;7.20;5.00;;;14.20;99.90;;;;;;4849105;29;20231;-78
2022/05/05 06:56:27;;;;;;;5.23;4.43;;;14.20;99.90;;;;;;4860117;29;20230;-79
2022/05/05 06:58:55;;;;;;;5.03;4.50;;;14.30;99.90;;;;;;4867040;29;20239;-77
2022/05/05 07:06:57;;;;;;;6.03;5.40;;;14.90;99.90;;;;;;4860994;29;20246;-77
2022/05/05 07:12:12;;;;;;;7.50;5.50;;;15.10;99.90;;;;;;4853676;29;20802;-79
2022/05/05 07:14:40;;;;;;;6.27;5.67;;;15.10;99.90;;;;;;4843281;29;20212;-77
2022/05/05 07:17:09;;;;;;;7.00;5.70;;;15.70;99.90;;;;;;4855193;29;20239;-78
2022/05/05 07:19:38;;;;;;;5.57;5.07;;;16.70;99.90;;;;;;4852096;29;20207;-76
2022/05/05 07:22:07;;;;;;;5.13;4.60;;;18.20;99.90;;;;;;4844021;29;20243;-75
2022/05/05 07:24:36;;;;;;;4.97;4.47;;;18.80;99.90;;;;;;4856917;29;20313;-76
2022/05/05 07:27:05;;;;;;;5.43;4.90;;;19.40;99.90;;;;;;4861237;29;20238;-78
2022/05/05 07:29:38;;;;;;;8.23;5.07;;;19.60;99.90;;;;;;4861400;29;20247;-76
2022/05/05 07:32:07;;;;;;;6.57;5.03;;;19.80;99.90;;;;;;4861357;29;20687;-79
2022/05/05 07:34:35;;;;;;;5.10;4.60;;;19.90;99.90;;;;;;4857393;29;20638;-76
2022/05/05 07:37:04;;;;;;;4.87;4.40;;;21.00;99.90;;;;;;4856825;29;20214;-76
2022/05/05 07:39:32;;;;;;;5.33;4.43;;;21.80;99.90;;;;;;4860975;29;20271;-77
2022/05/05 07:42:02;;;;;;;5.00;4.50;;;22.30;99.90;;;;;;4860838;29;20275;-76
2022/05/05 07:44:30;;;;;;;8.90;4.45;;;23.50;99.90;;;;;;4849617;29;20315;-75
2022/05/05 07:46:58;;;;;;;4.22;3.83;;;24.30;99.50;;;;;;4855930;29;20238;-74
2022/05/05 07:49:26;;;;;;;4.82;4.18;;;24.20;98.00;;;;;;4860288;29;20325;-75
2022/05/05 07:51:54;;;;;;;6.60;4.20;;;25.90;96.90;;;;;;4856510;29;20231;-77
2022/05/05 07:54:43;;;;;;;4.97;4.25;;;25.40;95.10;;;;;;4846220;29;20244;-77
2022/05/05 07:57:14;;;;;;;5.05;4.05;;;25.40;94.50;;;;;;4852433;29;20260;-77
2022/05/05 07:59:44;;;;;;;4.35;3.95;;;25.10;94.20;;;;;;4852384;29;20278;-75
2022/05/05 08:02:16;;;;;;;4.78;4.22;;;25.20;94.60;;;;;;4853084;29;20207;-75
2022/05/05 08:04:48;;;;;;;4.93;4.28;;;25.10;95.40;;;;;;4850837;29;20227;-76
2022/05/05 08:07:20;;;;;;;4.93;4.18;;;25.60;94.30;;;;;;4845792;29;20215;-75
2022/05/05 08:09:49;;;;;;;5.35;4.20;;;25.60;94.70;;;;;;4854473;29;20207;-75
2022/05/05 08:12:30;;;;;;;4.68;4.00;;;25.80;92.80;;;;;;4857300;29;20199;-77
2022/05/05 08:15:01;;;;;;;6.22;4.20;;;27.00;91.90;;;;;;4858040;29;20227;-77
2022/05/05 08:17:29;;;;;;;4.65;4.15;;;27.00;92.30;;;;;;4859005;29;20606;-76
2022/05/05 08:19:57;;;;;;;5.25;3.97;;;26.90;91.20;;;;;;4860431;29;20685;-75
2022/05/05 08:22:26;;;;;;;5.93;4.20;;;26.20;91.50;;;;;;4860283;29;20609;-76
2022/05/05 08:30:27;;;;;;;5.30;4.80;;;26.70;89.30;;;;;;4852038;29;20246;-75
2022/05/05 08:32:55;;;;;;;5.22;4.72;;;26.20;90.50;;;;;;4841978;29;20280;-75
2022/05/05 08:35:23;;;;;;;4.90;4.40;;;25.80;91.60;;;;;;4842766;29;20318;-78
2022/05/05 08:37:52;;;;;;;4.50;4.10;;;26.20;90.20;;;;;;4844250;29;20254;-77
2022/05/05 08:40:24;;;;;;;4.28;3.90;;;27.10;90.30;;;;;;4844707;29;20207;-77
2022/05/05 08:42:54;;;;;;;5.30;4.80;;;27.50;86.10;;;;;;4859720;29;20232;-77
2022/05/05 08:45:23;;;;;;;5.15;4.22;;;27.00;85.60;;;;;;4858746;29;20647;-76
2022/05/05 08:47:54;;;;;;;5.00;4.28;;;27.10;88.50;;;;;;4858203;29;20660;-78
2022/05/05 08:50:24;;;;;;;5.00;4.53;;;27.50;87.30;;;;;;4858420;29;20250;-77
2022/05/05 08:52:52;;;;;;;4.43;4.07;;;27.50;83.60;;;;;;4859648;29;20282;-77
2022/05/05 08:55:22;;;;;;;5.13;3.72;;;27.00;84.10;;;;;;4853716;29;20304;-77
2022/05/05 08:57:49;;;;;;;7.00;5.10;;;28.00;81.50;;;;;;4855677;29;20286;-76
2022/05/05 09:00:19;;;;;;;5.88;4.72;;;26.50;84.10;;;;;;4859700;29;20294;-77
2022/05/05 09:02:54;;;;;;;6.63;4.57;;;26.40;87.90;;;;;;4842360;29;20254;-76
2022/05/05 09:05:46;;;;;;;5.03;4.53;;;26.30;83.50;;;;;;4844653;29;20199;-77
2022/05/05 09:08:26;;;;;;;4.55;4.13;;;25.90;88.20;;;;;;4852673;29;20290;-77
2022/05/05 09:10:55;;;;;;;5.25;4.70;;;25.90;85.80;;;;;;4842202;29;20729;-77
2022/05/05 09:13:24;;;;;;;5.93;4.72;;;25.00;84.70;;;;;;4854646;29;20249;-74
2022/05/05 09:15:54;;;;;;;5.63;5.13;;;24.10;90.80;;;;;;4857894;29;20215;-77
2022/05/05 09:18:25;;;;;;;6.18;5.28;;;24.00;91.50;;;;;;4859996;29;20215;-76
2022/05/05 09:20:53;;;;;;;5.65;4.72;;;23.70;90.90;;;;;;4859890;29;20545;-76
2022/05/05 09:23:30;;;;;;;7.05;5.03;;;23.40;92.20;;;;;;4857579;29;20246;-75
2022/05/05 09:25:59;;;;;;;5.60;4.78;;;23.60;93.50;;;;;;4859349;29;20226;-75
2022/05/05 09:28:31;;;;;;;4.60;4.20;;;23.60;90.60;;;;;;4860787;29;20218;-74
2022/05/05 09:31:05;;;;;;;4.68;4.28;;;24.20;89.60;;;;;;4854385;29;20243;-76
2022/05/05 09:33:39;;;;;;;4.93;4.50;;;24.20;91.10;;;;;;4853136;29;20696;-75
2022/05/05 09:36:09;;;;;;;4.88;4.38;;;24.10;88.90;;;;;;4841315;29;20223;-76
2022/05/05 09:38:54;;;;;;;5.55;5.03;;;25.00;89.90;;;;;;4841359;29;20628;-76
2022/05/05 09:41:23;;;;;;;5.38;4.85;;;25.20;90.30;;;;;;4855589;29;20222;-75
2022/05/05 09:43:54;;;;;;;5.30;4.80;;;25.00;91.80;;;;;;4859194;29;20211;-75
2022/05/05 09:46:35;;;;;;;5.65;5.15;;;25.10;89.90;;;;;;4858177;29;20211;-78
2022/05/05 09:49:12;;;;;;;5.10;4.60;;;25.50;83.80;;;;;;4858882;29;20755;-75
2022/05/05 09:51:42;;;;;;;5.20;4.70;;;24.60;90.10;;;;;;4858425;29;20540;-75
2022/05/05 09:59:48;;;;;;;5.30;4.70;;;24.00;89.90;;;;;;4858440;29;20215;-75
2022/05/05 10:05:07;;;;;;;6.93;5.07;;;22.30;92.90;;;;;;4857108;29;20211;-80
2022/05/05 10:07:38;;;;;;;5.30;4.60;;;22.00;90.80;;;;;;4857096;29;20211;-76
2022/05/05 10:10:08;;;;;;;7.50;5.27;;;21.80;92.70;;;;;;4844420;29;20593;-77
2022/05/05 10:12:37;;;;;;;5.40;4.43;;;22.30;91.80;;;;;;4844289;29;20290;-76
2022/05/05 10:15:07;;;;;;;5.27;4.47;;;23.30;90.00;;;;;;4844271;29;20271;-76
2022/05/05 10:17:37;;;;;;;4.87;4.37;;;24.40;86.70;;;;;;4849081;29;20203;-75
2022/05/05 10:20:10;;;;;;;4.70;4.30;;;24.70;85.70;;;;;;4862673;29;20219;-78
2022/05/05 10:22:47;;;;;;;7.95;4.20;;;25.70;80.70;;;;;;4853153;29;20207;-73
2022/05/05 10:25:20;;;;;;;4.10;3.70;;;26.70;85.50;;;;;;4857093;29;20286;-77
2022/05/05 10:27:48;;;;;;;4.35;3.35;;;26.30;78.40;;;;;;4843641;29;20719;-76
2022/05/05 10:30:17;;;;;;;5.70;4.18;;;25.10;78.50;;;;;;4843905;29;20219;-76
2022/05/05 10:32:46;;;;;;;5.60;3.85;;;24.90;76.50;;;;;;4844894;29;20678;-77
2022/05/05 10:35:25;;;;;;;4.05;3.63;;;24.50;83.70;;;;;;4861585;29;20314;-77
2022/05/05 10:37:53;;;;;;;5.32;4.57;;;23.20;85.90;;;;;;4851600;29;20762;-78
2022/05/05 10:40:23;;;;;;;4.70;4.07;;;22.80;88.60;;;;;;4860428;29;20215;-77
2022/05/05 10:42:52;;;;;;;5.00;3.87;;;23.00;87.70;;;;;;4858649;29;20216;-75
2022/05/05 10:45:30;;;;;;;5.00;4.50;;;22.80;89.60;;;;;;4861327;29;20235;-76
2022/05/05 10:48:35;;;;;;;6.37;4.63;;;21.80;87.60;;;;;;4861955;29;20241;-78
2022/05/05 10:51:07;;;;;;;5.23;4.43;;;21.30;90.50;;;;;;4853695;29;20315;-78
2022/05/05 10:53:38;;;;;;;5.40;4.13;;;21.90;92.00;;;;;;4845507;29;20212;-76
2022/05/05 10:56:22;;;;;;;4.87;4.23;;;21.70;92.20;;;;;;4849368;29;20667;-76
2022/05/05 10:59:06;;;;;;;6.40;4.50;;;21.30;93.40;;;;;;4858945;29;20237;-76
2022/05/05 11:01:59;;;;;;;7.60;5.60;;;21.00;94.20;;;;;;4854490;29;20298;-77
2022/05/05 11:04:30;;;;;;;5.30;4.57;;;21.20;91.70;;;;;;4843995;29;20216;-78
2022/05/05 11:07:30;;;;;;;6.80;5.33;;;20.60;92.30;;;;;;4843725;29;20235;-77
2022/05/05 11:10:00;;;;;;;6.80;6.07;;;20.50;93.30;;;;;;4847599;29;20631;-77
2022/05/05 11:12:38;;;;;;;7.10;5.00;;;19.80;92.60;;;;;;4843269;29;20216;-78
2022/05/05 11:23:40;;;;;;;6.47;5.00;;;20.50;96.30;;;;;;4823669;29;20294;-78
2022/05/05 11:26:09;;;;;;;5.63;5.10;;;20.20;96.70;;;;;;4843873;29;20219;-77
2022/05/05 11:28:38;;;;;;;5.60;4.93;;;20.10;95.90;;;;;;4843439;29;20223;-76
2022/05/05 11:31:19;;;;;;;6.07;4.97;;;19.60;96.90;;;;;;4843180;29;20747;-77
2022/05/05 11:33:49;;;;;;;6.17;5.20;;;19.70;96.10;;;;;;4843242;29;20229;-77
2022/05/05 11:36:19;;;;;;;6.47;5.07;;;19.60;95.90;;;;;;4843204;29;20384;-78
2022/05/05 11:38:47;;;;;;;6.03;5.43;;;19.50;96.30;;;;;;4858750;29;20238;-77
2022/05/05 11:41:19;;;;;;;6.27;4.77;;;19.40;97.10;;;;;;4861849;29;20245;-77
2022/05/05 11:46:38;;;;;;;6.00;5.40;;;19.40;98.00;;;;;;4861978;29;20751;-80
2022/05/05 11:49:08;;;;;;;7.57;5.90;;;19.40;96.70;;;;;;4861585;29;20215;-77
2022/05/05 11:51:38;;;;;;;9.43;6.07;;;19.60;97.70;;;;;;4861567;29;20210;-78
2022/05/05 11:54:08;;;;;;;6.67;5.70;;;20.00;98.50;;;;;;4860980;29;20277;-79
2022/05/05 11:56:39;;;;;;;6.83;5.67;;;20.40;96.10;;;;;;4861872;29;20279;-78
2022/05/05 12:02:01;;;;;;;6.93;5.93;;;21.50;94.60;;;;;;4861263;29;20250;-76
2022/05/05 12:04:30;;;;;;;7.73;6.97;;;21.70;95.70;;;;;;4860987;29;20243;-76
2022/05/05 12:07:00;;;;;;;8.70;5.83;;;21.80;96.30;;;;;;4861276;29;20210;-78
2022/05/05 12:09:29;;;;;;;9.33;7.10;;;21.70;96.30;;;;;;4860779;29;20248;-76
2022/05/05 12:12:13;;;;;;;6.30;5.37;;;21.60;95.20;;;;;;4861358;29;20198;-78
2022/05/05 12:14:43;;;;;;;8.67;5.90;;;22.00;95.50;;;;;;4861251;29;20360;-78
2022/05/05 12:17:18;;;;;;;7.07;5.77;;;22.30;92.20;;;;;;4860777;29;20712;-77
2022/05/05 12:19:50;;;;;;;7.23;5.73;;;22.40;92.90;;;;;;4860698;29;20203;-78
2022/05/05 12:22:29;;;;;;;7.00;6.30;;;22.60;90.40;;;;;;4860830;29;20210;-77
2022/05/05 12:25:06;;;;;;;6.10;5.30;;;22.50;90.30;;;;;;4860750;29;20222;-78
2022/05/05 12:27:34;;;;;;;6.90;6.20;;;22.60;90.60;;;;;;4862348;29;20656;-79
2022/05/05 12:30:04;;;;;;;8.13;4.90;;;22.50;89.80;;;;;;4861575;29;20210;-75
2022/05/05 12:32:32;;;;;;;5.90;4.70;;;22.30;92.80;;;;;;4861119;29;20673;-77
2022/05/05 12:35:07;;;;;;;6.00;4.40;;;22.30;92.30;;;;;;4860651;29;20248;-75
2022/05/05 12:37:37;;;;;;;7.87;5.70;;;22.40;93.10;;;;;;4860493;29;20218;-75
2022/05/05 12:40:06;;;;;;;6.60;5.30;;;22.40;93.50;;;;;;4860681;29;20214;-78
2022/05/05 12:42:43;;;;;;;6.70;5.83;;;22.30;92.50;;;;;;4860851;29;20225;-75
2022/05/05 12:45:17;;;;;;;6.53;5.83;;;21.80;91.10;;;;;;4862910;29;20218;-77
2022/05/05 12:47:46;;;;;;;6.77;5.10;;;21.60;93.30;;;;;;4860837;29;20207;-75
2022/05/05 12:50:33;;;;;;;7.70;5.90;;;21.30;92.70;;;;;;4860692;29;20219;-77
2022/05/05 13:01:34;;;;;;;6.53;5.53;;;21.90;93.20;;;;;;4860305;29;20271;-78
2022/05/05 13:04:06;;;;;;;6.23;5.03;;;21.70;92.90;;;;;;4859985;29;20214;-76
2022/05/05 13:06:36;;;;;;;7.27;4.13;;;21.80;91.40;;;;;;4860152;29;20253;-77
2022/05/05 13:09:08;;;;;;;4.90;4.00;;;22.20;94.00;;;;;;4859876;29;20246;-76
2022/05/05 13:11:37;;;;;;;4.97;4.07;;;22.10;91.40;;;;;;4860082;29;20245;-76
2022/05/05 13:14:05;;;;;;;6.10;4.57;;;22.10;90.50;;;;;;4860054;29;20304;-75
2022/05/05 13:16:33;;;;;;;4.43;3.47;;;22.30;92.80;;;;;;4859977;29;20321;-76
2022/05/05 13:19:06;;;;;;;3.93;3.50;;;22.00;90.50;;;;;;4860301;29;20223;-78
2022/05/05 13:21:36;;;;;;;4.27;3.70;;;22.20;90.50;;;;;;4859910;29;20275;-79
2022/05/05 13:24:07;;;;;;;5.60;3.60;;;22.20;91.10;;;;;;4860269;29;20222;-78
2022/05/05 13:26:36;;;;;;;5.90;4.20;;;22.10;90.90;;;;;;4859985;29;20195;-78
2022/05/05 13:29:09;;;;;;;5.67;4.27;;;21.70;91.70;;;;;;4859929;29;20614;-76
2022/05/05 13:31:37;;;;;;;5.53;3.27;;;21.70;92.50;;;;;;4860057;29;20821;-76
2022/05/05 13:34:06;;;;;;;4.83;3.40;;;21.80;90.90;;;;;;4862198;29;20211;-76
2022/05/05 13:36:35;;;;;;;4.13;3.73;;;21.60;90.50;;;;;;4864010;29;20235;-77
2022/05/05 13:39:11;;;;;;;4.90;3.73;;;21.70;88.70;;;;;;4863633;29;20220;-78
2022/05/05 13:41:40;;;;;;;4.60;4.10;;;21.50;90.80;;;;;;4863852;29;20214;-77
2022/05/05 13:44:08;;;;;;;7.37;4.23;;;21.40;90.70;;;;;;4863501;29;20222;-79
2022/05/05 13:46:39;;;;;;;3.60;2.90;;;21.50;89.50;;;;;;4863437;29;20272;-78
2022/05/05 13:49:08;;;;;;;5.77;3.33;;;21.50;88.00;;;;;;4863342;29;20246;-77
2022/05/05 13:51:37;;;;;;;3.43;2.83;;;21.50;91.60;;;;;;4863198;29;20211;-76
2022/05/05 13:54:27;;;;;;;3.47;2.60;;;21.50;88.00;;;;;;4863207;29;20216;-78
2022/05/05 13:56:55;;;;;;;2.60;2.40;;;21.50;91.10;;;;;;4863335;29;20223;-76
2022/05/05 13:59:24;;;;;;;3.77;2.50;;;21.50;89.30;;;;;;4862922;29;20227;-76
2022/05/05 14:01:52;;;;;;;3.73;2.70;;;21.60;85.70;;;;;;4862993;29;20265;-76
2022/05/05 14:04:21;;;;;;;4.00;2.50;;;21.70;84.80;;;;;;4862829;29;20226;-77
2022/05/05 14:06:49;;;;;;;3.47;2.60;;;21.60;83.90;;;;;;4863108;29;20211;-77
2022/05/05 14:12:15;;;;;;;2.83;2.60;;;21.70;87.50;;;;;;4829845;29;20705;-78
2022/05/05 14:14:45;;;;;;;2.87;2.60;;;21.60;83.50;;;;;;4862489;29;20765;-79
2022/05/05 14:17:13;;;;;;;4.00;2.73;;;21.60;88.40;;;;;;4863059;29;20270;-74
2022/05/05 14:19:43;;;;;;;6.20;3.90;;;21.70;88.60;;;;;;4865759;29;20219;-76
2022/05/05 14:22:11;;;;;;;4.77;3.60;;;21.30;91.10;;;;;;4862915;29;20214;-78
2022/05/05 14:24:40;;;;;;;5.23;3.87;;;21.40;92.70;;;;;;4863171;29;20579;-78
2022/05/05 14:27:09;;;;;;;4.20;3.80;;;21.40;93.70;;;;;;4862897;29;20293;-78
2022/05/05 14:29:39;;;;;;;4.63;4.13;;;21.30;94.00;;;;;;4862681;29;20231;-77
2022/05/05 14:32:08;;;;;;;4.87;4.33;;;21.30;94.10;;;;;;4862958;29;20243;-79
2022/05/05 14:34:36;;;;;;;5.10;4.27;;;21.20;94.00;;;;;;4862355;29;20261;-77
2022/05/05 14:37:05;;;;;;;5.57;4.50;;;21.00;93.80;;;;;;4862241;29;20274;-78
2022/05/05 14:39:34;;;;;;;6.77;4.50;;;20.80;93.90;;;;;;4862427;29;20217;-78
2022/05/05 14:42:09;;;;;;;5.17;4.53;;;20.90;94.90;;;;;;4862916;29;20646;-75
2022/05/05 14:44:38;;;;;;;4.70;4.30;;;20.80;95.00;;;;;;4861640;29;20219;-77
2022/05/05 14:47:07;;;;;;;5.20;4.40;;;20.70;95.10;;;;;;4863304;29;20204;-74
2022/05/05 14:49:37;;;;;;;7.13;4.60;;;20.70;95.60;;;;;;4855742;29;20223;-79
2022/05/05 14:52:06;;;;;;;4.83;3.80;;;20.60;95.60;;;;;;4844518;29;20245;-78
2022/05/05 14:54:35;;;;;;;5.53;4.47;;;20.60;95.30;;;;;;4843956;29;20284;-77
2022/05/05 14:57:04;;;;;;;6.37;4.30;;;20.50;94.30;;;;;;4844087;29;20223;-75
2022/05/05 14:59:32;;;;;;;6.10;4.63;;;20.30;93.40;;;;;;4843451;29;20830;-78
2022/05/05 15:02:02;;;;;;;5.20;4.43;;;20.30;92.80;;;;;;4843200;29;20239;-75
2022/05/05 15:04:30;;;;;;;6.30;4.30;;;20.20;93.90;;;;;;4843661;29;20629;-77
2022/05/05 15:06:58;;;;;;;5.80;4.60;;;20.10;94.40;;;;;;4843254;29;20302;-76
2022/05/05 15:09:27;;;;;;;5.60;4.43;;;20.00;94.80;;;;;;4845151;29;20224;-77
2022/05/05 15:11:57;;;;;;;5.40;4.50;;;19.80;95.50;;;;;;4844301;29;20249;-77
2022/05/05 15:14:26;;;;;;;8.83;4.93;;;19.80;96.60;;;;;;4843967;29;20319;-74
2022/05/05 15:16:55;;;;;;;4.97;4.47;;;19.90;96.20;;;;;;4843870;29;20240;-77
2022/05/05 15:19:25;;;;;;;5.87;4.07;;;19.90;96.40;;;;;;4857874;29;20644;-79
2022/05/05 15:21:53;;;;;;;4.83;4.10;;;19.90;96.70;;;;;;4862716;29;20221;-78
2022/05/05 15:24:21;;;;;;;6.83;4.80;;;19.80;96.90;;;;;;4861543;29;20211;-77
2022/05/05 15:26:50;;;;;;;7.27;4.70;;;19.80;97.10;;;;;;4861516;29;20254;-77
2022/05/05 15:29:18;;;;;;;5.20;4.47;;;19.80;98.40;;;;;;4861568;29;20616;-78
2022/05/05 15:31:46;;;;;;;4.77;4.23;;;19.70;98.50;;;;;;4860974;29;20350;-78
2022/05/05 15:34:14;;;;;;;5.57;4.87;;;19.70;99.20;;;;;;4861601;29;20215;-78
2022/05/05 15:36:44;;;;;;;5.93;4.97;;;19.70;98.00;;;;;;4861658;29;20239;-78
2022/05/05 15:39:13;;;;;;;5.47;4.93;;;19.70;98.20;;;;;;4861424;29;20293;-78
2022/05/05 15:41:42;;;;;;;6.80;5.10;;;19.70;99.10;;;;;;4861438;29;20214;-78
2022/05/05 15:44:10;;;;;;;5.50;4.73;;;19.50;98.70;;;;;;4861554;29;20283;-77
2022/05/05 15:46:39;;;;;;;6.43;4.73;;;19.40;98.50;;;;;;4859825;29;20234;-78
2022/05/05 15:49:07;;;;;;;6.87;4.70;;;19.40;99.60;;;;;;4861676;29;20210;-78
2022/05/05 15:51:35;;;;;;;5.60;4.90;;;19.40;99.90;;;;;;4865374;29;20218;-78
2022/05/05 15:54:05;;;;;;;7.30;5.10;;;19.40;99.10;;;;;;4884967;29;20705;-77
2022/05/05 15:56:33;;;;;;;6.87;4.80;;;19.10;99.50;;;;;;4879449;29;20617;-77
2022/05/05 15:59:01;;;;;;;5.30;4.80;;;19.10;99.90;;;;;;4878978;29;20234;-76
2022/05/05 16:01:29;;;;;;;7.73;4.90;;;19.10;99.90;;;;;;4864371;29;20316;-79
2022/05/05 16:03:59;;;;;;;5.73;4.60;;;19.00;99.90;;;;;;4842433;29;20212;-76
2022/05/05 16:06:34;;;;;;;5.60;4.80;;;19.10;99.90;;;;;;4842711;29;20204;-76
2022/05/05 16:09:04;;;;;;;5.90;5.17;;;19.00;99.90;;;;;;4842548;29;20243;-76
2022/05/05 16:11:33;;;;;;;6.47;4.77;;;18.90;99.90;;;;;;4842942;29;20636;-79
2022/05/05 16:14:02;;;;;;;6.90;4.77;;;18.90;99.90;;;;;;4842437;29;20243;-78
2022/05/05 16:16:37;;;;;;;7.20;4.70;;;18.80;99.90;;;;;;4852739;29;20202;-76
2022/05/05 16:19:05;;;;;;;8.00;5.20;;;18.90;99.90;;;;;;4860499;29;20330;-79
2022/05/05 16:21:33;;;;;;;7.07;5.00;;;18.80;99.90;;;;;;4850096;29;20212;-78
2022/05/05 16:24:01;;;;;;;5.27;4.70;;;18.80;99.90;;;;;;4842035;29;20277;-75
2022/05/05 16:32:02;;;;;;;7.70;5.13;;;18.60;99.90;;;;;;4858765;29;20651;-79
2022/05/05 16:34:30;;;;;;;6.77;4.87;;;18.50;99.90;;;;;;4860644;29;20215;-78
2022/05/05 16:36:59;;;;;;;6.83;5.10;;;18.30;99.90;;;;;;4843478;29;20246;-77
2022/05/05 16:39:27;;;;;;;5.83;5.00;;;18.40;99.90;;;;;;4844994;29;20582;-78
2022/05/05 16:41:58;;;;;;;6.83;4.97;;;18.40;99.90;;;;;;4845921;29;20222;-78
2022/05/05 16:44:26;;;;;;;6.77;5.30;;;18.30;99.90;;;;;;4847662;29;20195;-78
2022/05/05 16:46:54;;;;;;;5.87;4.97;;;18.30;99.90;;;;;;4859555;29;20298;-78
2022/05/05 16:49:22;;;;;;;6.03;4.97;;;18.20;99.90;;;;;;4859102;29;20339;-78
2022/05/05 16:51:52;;;;;;;5.43;4.47;;;18.20;99.90;;;;;;4860030;29;20211;-80
2022/05/05 16:54:22;;;;;;;5.80;4.93;;;18.10;99.90;;;;;;4860077;29;20294;-79
2022/05/05 16:56:51;;;;;;;6.93;4.90;;;18.10;99.90;;;;;;4851419;29;20219;-79
2022/05/05 16:59:21;;;;;;;7.17;5.20;;;18.00;99.90;;;;;;4856977;29;20234;-76
2022/05/05 17:02:16;;;;;;;6.07;4.90;;;18.00;99.90;;;;;;4860518;29;20666;-74
2022/05/05 17:04:45;;;;;;;5.60;4.90;;;17.90;99.90;;;;;;4861830;29;20279;-74
2022/05/05 17:07:13;;;;;;;4.90;4.40;;;17.80;99.90;;;;;;4860728;29;20592;-75
2022/05/05 17:09:42;;;;;;;6.20;4.90;;;17.80;99.90;;;;;;4860196;29;20248;-75
2022/05/05 17:12:13;;;;;;;6.07;4.57;;;17.80;99.90;;;;;;4862609;29;20210;-76
2022/05/05 17:14:43;;;;;;;4.80;4.30;;;17.70;99.90;;;;;;4858556;29;20313;-75
2022/05/05 17:17:12;;;;;;;9.23;4.70;;;17.70;99.90;;;;;;4850550;29;20215;-76
2022/05/05 17:19:40;;;;;;;5.00;4.30;;;17.60;99.90;;;;;;4841473;29;20268;-78
2022/05/05 17:22:11;;;;;;;4.60;4.10;;;17.60;99.90;;;;;;4858435;29;20305;-78
2022/05/05 17:24:40;;;;;;;5.80;4.73;;;17.50;99.90;;;;;;4858914;29;20238;-77
2022/05/05 17:27:08;;;;;;;6.43;4.70;;;17.50;99.90;;;;;;4859666;29;20314;-78
2022/05/05 17:29:36;;;;;;;4.97;3.80;;;17.40;99.90;;;;;;4859559;29;20627;-74
2022/05/05 17:32:06;;;;;;;7.33;4.33;;;17.30;99.90;;;;;;4863269;29;20215;-73
2022/05/05 17:34:34;;;;;;;5.90;4.43;;;17.30;99.90;;;;;;4859143;29;20207;-77
2022/05/05 17:37:04;;;;;;;5.83;4.67;;;17.20;99.90;;;;;;4859443;29;21085;-77
2022/05/05 17:39:32;;;;;;;4.90;4.03;;;17.20;99.90;;;;;;4858505;29;20655;-77
2022/05/05 17:42:07;;;;;;;4.40;3.97;;;17.10;99.90;;;;;;4861520;29;20195;-75
2022/05/05 17:52:55;;;;;;;5.90;4.40;;;16.80;99.90;;;;;;4868588;29;20221;-78
2022/05/05 17:55:23;;;;;;;8.20;4.60;;;16.80;99.90;;;;;;4866482;29;20350;-78
2022/05/05 17:57:52;;;;;;;7.20;5.30;;;16.70;99.90;;;;;;4851288;29;20208;-78
2022/05/05 18:00:20;;;;;;;5.33;4.83;;;16.60;99.90;;;;;;4841048;29;20575;-79
2022/05/05 18:02:49;;;;;;;5.83;4.70;;;16.60;99.90;;;;;;4841369;29;20227;-81
2022/05/05 18:05:17;;;;;;;5.57;4.50;;;16.50;99.90;;;;;;4856061;29;20211;-76
2022/05/05 18:07:45;;;;;;;4.80;4.30;;;16.50;99.90;;;;;;4859905;29;20306;-79
2022/05/05 18:10:14;;;;;;;5.80;4.70;;;16.50;99.90;;;;;;4859136;29;20302;-79
2022/05/05 18:12:44;;;;;;;7.63;4.40;;;16.50;99.90;;;;;;4861031;29;20651;-78